createdAt,value
2023-03-07T00:00:16.191Z,46.03
2023-03-07T00:03:03.302Z,44.10
2023-03-07T00:05:32.136Z,44.23
2023-03-07T00:07:59.476Z,52.30
2023-03-07T00:10:26.907Z,48.83
2023-03-07T00:12:53.815Z,46.00
2023-03-07T00:15:21.101Z,51.93
2023-03-07T00:17:48.132Z,48.77
2023-03-07T00:20:15.731Z,70.33
2023-03-07T00:22:43.703Z,50.50
2023-03-07T00:25:11.126Z,48.70
2023-03-07T00:27:38.159Z,53.30
2023-03-07T00:30:06.081Z,48.27
2023-03-07T00:32:33.244Z,47.73
2023-03-07T00:35:01.067Z,46.43
2023-03-07T00:37:28.167Z,49.30
2023-03-07T00:39:55.498Z,46.50
2023-03-07T00:42:22.565Z,52.13
2023-03-07T00:44:50.014Z,45.83
2023-03-07T00:47:17.115Z,54.00
2023-03-07T00:49:44.756Z,46.97
2023-03-07T00:52:11.944Z,44.50
2023-03-07T00:54:39.406Z,46.33
2023-03-07T00:57:06.642Z,47.63
2023-03-07T00:59:34.062Z,49.40
2023-03-07T01:02:01.024Z,43.67
2023-03-07T01:04:28.573Z,49.20
2023-03-07T01:06:55.527Z,46.37
2023-03-07T01:09:23.842Z,47.03
2023-03-07T01:11:51.287Z,42.53
2023-03-07T01:14:18.883Z,47.30
2023-03-07T01:16:46.016Z,49.37
2023-03-07T01:19:13.968Z,45.23
2023-03-07T01:21:43.003Z,45.23
2023-03-07T01:24:13.376Z,45.77
2023-03-07T01:26:41.215Z,44.53
2023-03-07T01:29:10.221Z,46.00
2023-03-07T01:31:37.337Z,51.67
2023-03-07T01:34:05.580Z,49.97
2023-03-07T01:36:37.326Z,48.80
2023-03-07T01:39:14.428Z,49.73
2023-03-07T01:41:55.820Z,74.77
2023-03-07T01:44:27.328Z,54.73
2023-03-07T01:47:00.137Z,50.67
2023-03-07T01:49:44.835Z,48.60
2023-03-07T01:52:16.201Z,51.80
2023-03-07T01:55:24.407Z,48.87
2023-03-07T01:57:55.700Z,50.77
2023-03-07T02:00:28.906Z,37.30
2023-03-07T02:03:04.448Z,37.90
2023-03-07T02:05:38.180Z,32.70
2023-03-07T02:08:08.448Z,30.60
2023-03-07T02:10:36.485Z,30.53
2023-03-07T02:13:03.865Z,27.73
2023-03-07T02:15:33.084Z,30.53
2023-03-07T02:18:00.194Z,33.90
2023-03-07T02:20:36.262Z,26.20
2023-03-07T02:23:04.742Z,32.93
2023-03-07T02:25:36.442Z,31.37
2023-03-07T02:28:04.537Z,30.90
2023-03-07T02:30:32.923Z,32.07
2023-03-07T02:32:59.992Z,33.57
2023-03-07T02:35:27.548Z,32.63
2023-03-07T02:38:02.039Z,34.77
2023-03-07T02:40:31.609Z,35.60
2023-03-07T02:43:01.986Z,36.40
2023-03-07T02:45:29.352Z,40.43
2023-03-07T02:47:56.406Z,38.23
2023-03-07T02:50:23.616Z,38.00
2023-03-07T02:52:52.737Z,37.77
2023-03-07T02:55:20.023Z,36.73
2023-03-07T02:57:56.608Z,41.83
2023-03-07T03:00:24.277Z,42.63
2023-03-07T03:02:51.816Z,38.83
2023-03-07T03:05:20.396Z,41.40
2023-03-07T03:07:47.378Z,35.97
2023-03-07T03:10:15.007Z,42.30
2023-03-07T03:12:42.115Z,42.73
2023-03-07T03:15:10.905Z,39.67
2023-03-07T03:17:38.224Z,37.23
2023-03-07T03:20:11.826Z,41.77
2023-03-07T03:22:40.342Z,43.27
2023-03-07T03:25:10.647Z,41.83
2023-03-07T03:27:41.552Z,46.97
2023-03-07T03:30:11.645Z,43.57
2023-03-07T03:32:39.906Z,41.00
2023-03-07T03:35:09.612Z,41.10
2023-03-07T03:37:37.163Z,45.20
2023-03-07T03:40:14.275Z,46.47
2023-03-07T03:42:42.966Z,43.70
2023-03-07T03:45:10.896Z,44.67
2023-03-07T03:47:38.358Z,44.00
2023-03-07T03:50:07.052Z,49.40
2023-03-07T03:52:36.188Z,44.00
2023-03-07T03:55:04.734Z,41.00
2023-03-07T03:57:31.703Z,40.03
2023-03-07T03:59:59.073Z,43.70
2023-03-07T04:02:26.826Z,45.43
2023-03-07T04:04:54.455Z,42.60
2023-03-07T04:07:22.210Z,45.00
2023-03-07T04:09:50.050Z,45.53
2023-03-07T04:12:17.294Z,44.93
2023-03-07T04:14:44.807Z,50.37
2023-03-07T04:17:12.452Z,43.87
2023-03-07T04:19:39.797Z,45.43
2023-03-07T04:22:08.191Z,41.40
2023-03-07T04:24:36.183Z,45.07
2023-03-07T04:27:03.782Z,46.43
2023-03-07T04:29:31.659Z,47.50
2023-03-07T04:32:04.468Z,42.93
2023-03-07T04:34:31.765Z,48.13
2023-03-07T04:36:59.508Z,45.37
2023-03-07T04:39:27.201Z,46.67
2023-03-07T04:41:54.667Z,52.23
2023-03-07T04:44:23.724Z,50.57
2023-03-07T04:46:50.853Z,47.30
2023-03-07T04:49:18.074Z,47.87
2023-03-07T04:51:45.123Z,68.73
2023-03-07T04:54:14.804Z,59.10
2023-03-07T04:56:42.293Z,53.00
2023-03-07T04:59:11.642Z,47.37
2023-03-07T05:01:38.827Z,46.00
2023-03-07T05:04:06.579Z,50.07
2023-03-07T05:06:33.781Z,60.50
2023-03-07T05:09:01.329Z,77.83
2023-03-07T05:11:28.925Z,68.27
2023-03-07T05:13:57.038Z,54.90
2023-03-07T05:16:24.050Z,45.63
2023-03-07T05:18:51.509Z,45.80
2023-03-07T05:21:19.254Z,51.97
2023-03-07T05:23:46.648Z,49.87
2023-03-07T05:26:14.053Z,47.33
2023-03-07T05:28:42.197Z,48.73
2023-03-07T05:31:09.222Z,56.30
2023-03-07T05:33:37.081Z,64.13
2023-03-07T05:36:04.614Z,94.07
2023-03-07T05:38:33.286Z,76.97
2023-03-07T05:41:00.582Z,64.77
2023-03-07T05:43:28.137Z,59.17
2023-03-07T05:45:55.306Z,74.93
2023-03-07T05:48:23.080Z,84.57
2023-03-07T05:50:50.078Z,53.40
2023-03-07T05:53:19.137Z,46.23
2023-03-07T05:55:46.372Z,49.80
2023-03-07T05:58:15.400Z,49.57
2023-03-07T06:00:44.845Z,43.50
2023-03-07T06:03:12.203Z,43.13
2023-03-07T06:05:39.369Z,45.83
2023-03-07T06:08:07.815Z,42.43
2023-03-07T06:10:35.178Z,45.43
2023-03-07T06:13:04.725Z,51.90
2023-03-07T06:15:31.650Z,64.53
2023-03-07T06:18:04.192Z,55.87
2023-03-07T06:20:31.256Z,40.77
2023-03-07T06:23:00.719Z,66.13
2023-03-07T06:25:27.960Z,52.53
2023-03-07T06:28:00.833Z,47.37
2023-03-07T06:30:30.221Z,47.60
2023-03-07T06:32:57.670Z,44.27
2023-03-07T06:35:24.954Z,56.43
2023-03-07T06:37:52.263Z,52.67
2023-03-07T06:40:19.448Z,63.63
2023-03-07T06:42:46.878Z,48.57
2023-03-07T06:45:14.213Z,66.20
2023-03-07T06:47:41.483Z,57.47
2023-03-07T06:50:10.605Z,68.17
2023-03-07T06:52:38.960Z,48.90
2023-03-07T06:55:06.774Z,49.87
2023-03-07T06:57:35.137Z,46.90
2023-03-07T07:00:04.315Z,50.23
2023-03-07T07:02:33.341Z,48.27
2023-03-07T07:05:01.416Z,48.57
2023-03-07T07:07:30.347Z,52.40
2023-03-07T07:09:58.497Z,49.03
2023-03-07T07:12:26.967Z,53.67
2023-03-07T07:14:55.229Z,53.70
2023-03-07T07:17:22.604Z,64.80
2023-03-07T07:19:49.934Z,75.33
2023-03-07T07:22:18.144Z,57.83
2023-03-07T07:24:45.299Z,70.80
2023-03-07T07:27:12.740Z,70.57
2023-03-07T07:29:40.235Z,85.30
2023-03-07T07:32:09.630Z,54.77
2023-03-07T07:34:36.797Z,59.03
2023-03-07T07:37:04.766Z,58.27
2023-03-07T07:39:31.911Z,59.30
2023-03-07T07:41:59.315Z,57.17
2023-03-07T07:44:31.137Z,50.10
2023-03-07T07:47:01.080Z,54.27
2023-03-07T07:49:28.115Z,55.87
2023-03-07T07:51:56.177Z,48.93
2023-03-07T07:54:23.535Z,48.03
2023-03-07T07:56:51.108Z,46.50
2023-03-07T07:59:19.391Z,47.07
2023-03-07T08:01:46.651Z,46.37
2023-03-07T08:04:13.783Z,48.07
2023-03-07T08:06:41.826Z,43.87
2023-03-07T08:09:09.170Z,54.07
2023-03-07T08:11:36.861Z,65.67
2023-03-07T08:14:03.920Z,46.20
2023-03-07T08:16:31.773Z,56.80
2023-03-07T08:18:58.844Z,45.60
2023-03-07T08:21:26.219Z,41.43
2023-03-07T08:23:54.312Z,73.30
2023-03-07T08:26:21.751Z,78.10
2023-03-07T08:28:48.768Z,67.87
2023-03-07T08:31:23.704Z,61.30
2023-03-07T08:33:51.765Z,82.67
2023-03-07T08:36:19.456Z,54.60
2023-03-07T08:38:53.255Z,47.70
2023-03-07T08:41:22.148Z,57.83
2023-03-07T08:43:49.574Z,56.70
2023-03-07T08:46:17.193Z,52.47
2023-03-07T08:48:44.425Z,45.67
2023-03-07T08:51:15.114Z,50.23
2023-03-07T08:53:43.222Z,50.03
2023-03-07T08:56:15.154Z,53.30
2023-03-07T08:58:42.210Z,67.60
2023-03-07T09:01:10.194Z,48.23
2023-03-07T09:03:37.412Z,46.83
2023-03-07T09:06:05.572Z,48.77
2023-03-07T09:08:32.641Z,48.47
2023-03-07T09:11:05.402Z,46.43
2023-03-07T09:13:36.112Z,52.97
2023-03-07T09:16:07.074Z,54.13
2023-03-07T09:18:34.910Z,46.37
2023-03-07T09:21:03.377Z,43.63
2023-03-07T09:23:30.411Z,50.63
2023-03-07T09:26:05.820Z,51.57
2023-03-07T09:28:32.806Z,50.03
2023-03-07T09:31:00.549Z,48.47
2023-03-07T09:33:27.634Z,51.47
2023-03-07T09:35:55.029Z,47.03
2023-03-07T09:38:22.014Z,55.53
2023-03-07T09:40:49.253Z,50.07
2023-03-07T09:43:21.691Z,55.17
2023-03-07T09:46:32.953Z,49.40
2023-03-07T09:49:20.596Z,47.23
2023-03-07T09:51:52.599Z,71.27
2023-03-07T09:54:22.083Z,62.00
2023-03-07T09:56:59.635Z,52.17
2023-03-07T09:59:42.278Z,52.13
2023-03-07T10:02:32.836Z,52.53
2023-03-07T10:05:08.741Z,52.43
2023-03-07T10:07:36.435Z,53.63
2023-03-07T10:10:18.220Z,51.43
2023-03-07T10:12:51.699Z,48.50
2023-03-07T10:15:42.693Z,57.97
2023-03-07T10:18:41.538Z,79.93
2023-03-07T10:21:28.714Z,94.17
2023-03-07T10:24:22.513Z,66.13
2023-03-07T10:27:09.751Z,61.73
2023-03-07T10:29:45.535Z,57.93
2023-03-07T10:32:40.153Z,58.10
2023-03-07T10:35:16.757Z,61.87
2023-03-07T10:37:52.683Z,60.83
2023-03-07T10:40:30.399Z,58.80
2023-03-07T10:42:58.698Z,62.77
2023-03-07T10:45:30.311Z,76.43
2023-03-07T10:48:07.803Z,84.43
2023-03-07T10:50:56.849Z,125.50
2023-03-07T10:53:29.128Z,138.07
2023-03-07T10:56:11.225Z,82.63
2023-03-07T10:58:38.309Z,66.47
2023-03-07T11:01:08.535Z,73.47
2023-03-07T11:03:51.515Z,64.10
2023-03-07T11:06:30.918Z,58.20
2023-03-07T11:09:17.954Z,59.83
2023-03-07T11:11:54.036Z,58.43
2023-03-07T11:14:22.100Z,69.23
2023-03-07T11:16:55.795Z,68.37
2023-03-07T11:19:33.241Z,67.10
2023-03-07T11:22:03.658Z,58.73
2023-03-07T11:24:40.765Z,62.17
2023-03-07T11:27:21.017Z,62.93
2023-03-07T11:30:06.783Z,61.83
2023-03-07T11:32:36.560Z,61.30
2023-03-07T11:35:07.586Z,63.80
2023-03-07T11:37:39.763Z,65.53
2023-03-07T11:40:39.034Z,64.23
2023-03-07T11:43:20.861Z,124.77
2023-03-07T11:46:32.548Z,105.07
2023-03-07T11:49:12.291Z,87.53
2023-03-07T11:52:08.893Z,63.47
2023-03-07T11:54:56.906Z,61.43
2023-03-07T11:57:29.886Z,70.17
2023-03-07T12:00:16.110Z,60.93
2023-03-07T12:03:00.838Z,64.27
2023-03-07T12:05:33.324Z,60.80
2023-03-07T12:08:33.742Z,56.87
2023-03-07T12:11:12.985Z,66.97
2023-03-07T12:14:00.345Z,104.73
2023-03-07T12:16:27.653Z,200.50
2023-03-07T12:19:20.943Z,84.63
2023-03-07T12:22:32.744Z,85.93
2023-03-07T12:24:59.705Z,61.77
2023-03-07T12:27:36.932Z,63.30
2023-03-07T12:30:35.800Z,56.50
2023-03-07T12:33:05.101Z,62.63
2023-03-07T12:35:50.332Z,59.20
2023-03-07T12:38:40.704Z,54.67
2023-03-07T12:41:40.067Z,110.03
2023-03-07T12:44:14.388Z,83.17
2023-03-07T12:47:04.282Z,86.53
2023-03-07T12:49:47.839Z,78.47
2023-03-07T12:52:30.464Z,61.50
2023-03-07T12:55:31.919Z,64.53
2023-03-07T12:58:37.274Z,60.60
2023-03-07T13:01:12.709Z,56.07
2023-03-07T13:03:55.833Z,62.00
2023-03-07T13:06:24.223Z,61.90
2023-03-07T13:08:54.736Z,104.67
2023-03-07T13:11:24.694Z,262.93
2023-03-07T13:14:02.490Z,136.00
2023-03-07T13:16:42.670Z,90.67
2023-03-07T13:19:34.912Z,82.27
2023-03-07T13:22:25.261Z,85.40
2023-03-07T13:24:56.453Z,76.90
2023-03-07T13:27:33.210Z,109.77
2023-03-07T13:30:12.587Z,72.87
2023-03-07T13:32:51.754Z,102.13
2023-03-07T13:35:30.732Z,83.60
2023-03-07T13:38:13.357Z,128.90
2023-03-07T13:40:49.273Z,107.30
2023-03-07T13:43:23.519Z,87.00
2023-03-07T13:45:56.846Z,61.73
2023-03-07T13:48:30.591Z,51.37
2023-03-07T13:51:00.674Z,50.63
2023-03-07T13:53:28.015Z,62.03
2023-03-07T13:55:57.536Z,45.13
2023-03-07T13:58:37.977Z,46.33
2023-03-07T14:01:15.002Z,46.73
2023-03-07T14:03:50.627Z,41.60
2023-03-07T14:06:20.590Z,120.30
2023-03-07T14:08:49.146Z,113.37
2023-03-07T14:11:45.280Z,70.13
2023-03-07T14:14:15.838Z,79.07
2023-03-07T14:16:42.942Z,41.63
2023-03-07T14:19:16.174Z,44.43
2023-03-07T14:22:21.407Z,43.47
2023-03-07T14:24:57.182Z,146.57
2023-03-07T14:27:24.249Z,400.70
2023-03-07T14:29:57.116Z,357.37
2023-03-07T14:32:28.203Z,160.07
2023-03-07T14:34:55.744Z,85.20
2023-03-07T14:37:26.469Z,118.30
2023-03-07T14:39:59.891Z,71.30
2023-03-07T14:42:48.133Z,149.50
2023-03-07T14:45:15.432Z,90.93
2023-03-07T14:47:44.997Z,57.13
2023-03-07T14:50:15.803Z,36.47
2023-03-07T14:52:43.528Z,33.97
2023-03-07T14:55:38.077Z,142.73
2023-03-07T14:58:05.645Z,120.13
2023-03-07T15:00:34.774Z,59.70
2023-03-07T15:03:04.329Z,33.43
2023-03-07T15:05:36.916Z,35.00
2023-03-07T15:08:06.973Z,138.50
2023-03-07T15:10:42.394Z,158.03
2023-03-07T15:13:21.217Z,101.33
2023-03-07T15:15:59.121Z,62.80
2023-03-07T15:18:31.982Z,47.60
2023-03-07T15:21:00.726Z,37.97
2023-03-07T15:23:29.152Z,79.57
2023-03-07T15:26:05.258Z,150.37
2023-03-07T15:28:41.180Z,92.60
2023-03-07T15:31:09.255Z,70.73
2023-03-07T15:33:36.537Z,54.10
2023-03-07T15:36:13.225Z,81.73
2023-03-07T15:38:45.834Z,130.97
2023-03-07T15:41:25.454Z,209.37
2023-03-07T15:44:16.807Z,81.67
2023-03-07T15:46:50.482Z,87.33
2023-03-07T15:49:44.402Z,116.63
2023-03-07T15:52:30.811Z,36.97
2023-03-07T15:54:59.592Z,31.17
2023-03-07T15:57:31.490Z,75.93
2023-03-07T16:00:00.942Z,64.80
2023-03-07T16:02:46.377Z,68.70
2023-03-07T16:05:19.633Z,59.57
2023-03-07T16:07:47.602Z,50.43
2023-03-07T16:10:15.078Z,60.37
2023-03-07T16:12:46.566Z,45.33
2023-03-07T16:15:15.797Z,39.20
2023-03-07T16:17:43.539Z,38.80
2023-03-07T16:20:14.820Z,42.33
2023-03-07T16:22:44.169Z,45.73
2023-03-07T16:25:11.947Z,30.43
2023-03-07T16:27:39.593Z,28.33
2023-03-07T16:30:14.206Z,33.27
2023-03-07T16:32:41.820Z,123.73
2023-03-07T16:35:26.608Z,94.20
2023-03-07T16:37:54.819Z,135.70
2023-03-07T16:40:22.936Z,91.50
2023-03-07T16:42:50.765Z,79.97
2023-03-07T16:45:23.956Z,66.00
2023-03-07T16:47:52.967Z,60.03
2023-03-07T16:50:23.530Z,56.30
2023-03-07T16:52:50.585Z,56.20
2023-03-07T16:55:18.534Z,77.23
2023-03-07T16:57:47.189Z,516.17
2023-03-07T17:00:20.379Z,407.13
2023-03-07T17:02:48.168Z,347.93
2023-03-07T17:05:25.630Z,237.67
2023-03-07T17:07:57.334Z,219.37
2023-03-07T17:10:28.990Z,82.17
2023-03-07T17:13:00.600Z,78.13
2023-03-07T17:15:31.235Z,185.90
2023-03-07T17:17:59.464Z,98.00
2023-03-07T17:20:27.580Z,59.87
2023-03-07T17:22:54.656Z,66.43
2023-03-07T17:25:23.012Z,65.53
2023-03-07T17:27:55.132Z,118.07
2023-03-07T17:30:25.156Z,82.00
2023-03-07T17:32:52.768Z,607.30
2023-03-07T17:35:20.665Z,715.67
2023-03-07T17:37:50.338Z,743.60
2023-03-07T17:40:17.693Z,106.53
2023-03-07T17:42:44.950Z,94.40
2023-03-07T17:45:13.957Z,240.10
2023-03-07T17:47:41.164Z,102.17
2023-03-07T17:50:09.597Z,114.80
2023-03-07T17:52:37.121Z,122.53
2023-03-07T17:55:09.498Z,546.03
2023-03-07T17:57:37.039Z,1116.33
2023-03-07T18:00:13.195Z,847.80
2023-03-07T18:02:43.719Z,180.53
2023-03-07T18:05:13.211Z,96.83
2023-03-07T18:07:41.260Z,228.70
2023-03-07T18:10:10.182Z,82.73
2023-03-07T18:12:39.404Z,68.43
2023-03-07T18:15:09.746Z,60.20
2023-03-07T18:17:47.348Z,127.13
2023-03-07T18:20:20.290Z,37.83
2023-03-07T18:22:47.958Z,553.97
2023-03-07T18:25:16.896Z,547.53
2023-03-07T18:27:44.824Z,841.20
2023-03-07T18:30:14.000Z,72.57
2023-03-07T18:32:41.543Z,107.50
2023-03-07T18:35:09.406Z,219.77
2023-03-07T18:37:36.752Z,53.00
2023-03-07T18:40:04.855Z,40.30
2023-03-07T18:42:33.118Z,68.70
2023-03-07T18:45:00.426Z,135.93
2023-03-07T18:47:27.495Z,567.63
2023-03-07T18:49:54.837Z,521.07
2023-03-07T18:52:22.089Z,381.00
2023-03-07T18:54:49.549Z,49.97
2023-03-07T18:57:16.561Z,58.47
2023-03-07T18:59:44.184Z,92.97
2023-03-07T19:02:11.227Z,46.23
2023-03-07T19:04:38.591Z,47.03
2023-03-07T19:07:05.965Z,43.87
2023-03-07T19:09:33.373Z,88.27
2023-03-07T19:12:00.434Z,39.47
2023-03-07T19:14:27.860Z,39.70
2023-03-07T19:16:54.829Z,45.40
2023-03-07T19:19:22.151Z,43.73
2023-03-07T19:21:49.180Z,47.67
2023-03-07T19:24:16.452Z,46.43
2023-03-07T19:26:43.584Z,42.97
2023-03-07T19:29:12.710Z,39.33
2023-03-07T19:31:41.059Z,36.50
2023-03-07T19:34:09.079Z,41.87
2023-03-07T19:36:37.397Z,43.83
2023-03-07T19:39:05.183Z,41.60
2023-03-07T19:41:32.458Z,37.13
2023-03-07T19:44:00.596Z,83.03
2023-03-07T19:46:28.181Z,37.30
2023-03-07T19:48:56.004Z,35.97
2023-03-07T19:51:25.060Z,40.40
2023-03-07T19:53:56.957Z,45.07
2023-03-07T19:56:29.917Z,41.83
2023-03-07T19:58:59.055Z,43.30
2023-03-07T20:01:27.284Z,35.87
2023-03-07T20:03:54.848Z,37.63
2023-03-07T20:06:27.463Z,37.37
2023-03-07T20:08:55.177Z,38.83
2023-03-07T20:11:27.010Z,44.67
2023-03-07T20:13:56.297Z,40.97
2023-03-07T20:16:24.431Z,40.47
2023-03-07T20:18:53.020Z,38.73
2023-03-07T20:21:22.231Z,42.03
2023-03-07T20:23:50.135Z,40.97
2023-03-07T20:26:33.979Z,44.27
2023-03-07T20:29:02.932Z,36.67
2023-03-07T20:31:30.498Z,35.30
2023-03-07T20:33:59.729Z,41.60
2023-03-07T20:36:32.165Z,55.87
2023-03-07T20:39:01.593Z,41.37
2023-03-07T20:41:30.788Z,41.53
2023-03-07T20:44:00.840Z,40.03
2023-03-07T20:46:28.143Z,42.43
2023-03-07T20:48:56.131Z,45.13
2023-03-07T20:51:26.993Z,53.53
2023-03-07T20:53:57.256Z,42.67
2023-03-07T20:56:25.729Z,49.43
2023-03-07T20:58:53.905Z,40.13
2023-03-07T21:01:22.499Z,40.23
2023-03-07T21:03:49.940Z,59.40
2023-03-07T21:06:18.114Z,116.87
2023-03-07T21:08:47.474Z,71.50
2023-03-07T21:11:16.832Z,102.93
2023-03-07T21:13:45.469Z,116.30
2023-03-07T21:16:23.378Z,81.37
2023-03-07T21:18:51.254Z,110.83
2023-03-07T21:21:20.204Z,64.73
2023-03-07T21:23:48.030Z,68.03
2023-03-07T21:26:17.729Z,122.60
2023-03-07T21:28:45.448Z,54.57
2023-03-07T21:31:12.420Z,68.90
2023-03-07T21:33:41.244Z,82.37
2023-03-07T21:36:08.969Z,47.63
2023-03-07T21:38:38.235Z,105.50
2023-03-07T21:41:06.066Z,63.87
2023-03-07T21:43:33.695Z,81.43
2023-03-07T21:46:18.695Z,68.17
2023-03-07T21:48:46.282Z,70.00
2023-03-07T21:51:13.429Z,80.47
2023-03-07T21:53:40.897Z,83.03
2023-03-07T21:56:10.214Z,117.33
2023-03-07T21:58:38.102Z,67.23
2023-03-07T22:01:19.993Z,56.77
2023-03-07T22:03:47.514Z,46.90
2023-03-07T22:06:15.632Z,65.27
2023-03-07T22:08:43.057Z,57.37
2023-03-07T22:11:11.848Z,43.43
2023-03-07T22:13:40.652Z,45.13
2023-03-07T22:16:10.527Z,48.03
2023-03-07T22:18:37.943Z,39.57
2023-03-07T22:21:17.332Z,59.50
2023-03-07T22:23:45.867Z,42.43
2023-03-07T22:26:13.200Z,39.80
2023-03-07T22:28:41.097Z,42.60
2023-03-07T22:31:10.630Z,35.53
2023-03-07T22:33:38.559Z,46.97
2023-03-07T22:36:07.240Z,48.10
2023-03-07T22:38:35.101Z,37.97
2023-03-07T22:41:04.248Z,43.90
2023-03-07T22:43:35.460Z,43.13
2023-03-07T22:46:02.845Z,41.17
2023-03-07T22:48:30.698Z,44.60
2023-03-07T22:50:58.026Z,51.17
2023-03-07T22:53:28.384Z,37.00
2023-03-07T22:55:55.479Z,44.80
2023-03-07T22:58:22.746Z,43.00
2023-03-07T23:00:49.777Z,42.37
2023-03-07T23:03:17.242Z,41.40
2023-03-07T23:05:46.870Z,42.37
2023-03-07T23:08:14.231Z,47.93
2023-03-07T23:10:41.203Z,38.57
2023-03-07T23:13:08.525Z,43.47
2023-03-07T23:15:39.736Z,40.50
2023-03-07T23:18:07.157Z,45.10
2023-03-07T23:20:37.182Z,40.00
2023-03-07T23:49:59.503Z,37.13
2023-03-07T23:52:26.532Z,36.53
2023-03-07T23:54:53.961Z,40.23
2023-03-07T23:57:20.916Z,37.63
2023-03-07T23:59:48.977Z,36.47
